VOE2737 LGKR-LFQQ
Flight info
| Callsign | VOE2737 |
|---|---|
| Flight time | 2h 38m |
| Altitude | 32000 |
| Route | OLGAT DCT OKIMO DCT AIOSA DCT BAXON DCT RESIA DCT ELMUR DCT RIPUS DCT DITON DCT HOC DCT MANAG DCT ROTSI UL613 NURMO/N0374F180 N874 CMB |
| Aircraft | A320/M-SDE3FGHIRWY/LB1 |
Departure
| Time | 2026-05-03 20:18 |
|---|---|
| Airport | Corfu Ioannis Kapodistrias International Airport (LGKR) |
Arrival
| Time | 2026-05-03 22:57 |
|---|---|
| Airport | Lille Airport (LFQQ) |
| Time | Latitude | Longitude | Altitude | Speed | Heading |
|---|---|---|---|---|---|
| 2026-05-03 20:15 | 39.60881 | 19.91167 | 22 ft | 0 kts | 356° |
| 2026-05-03 20:15 | 39.60898 | 19.91164 | 23 ft | 8 kts | 351° |
| 2026-05-03 20:16 | 39.60954 | 19.91153 | 21 ft | 7 kts | 351° |
| 2026-05-03 20:16 | 39.60996 | 19.91145 | 23 ft | 5 kts | 351° |
| 2026-05-03 20:16 | 39.61031 | 19.91133 | 24 ft | 9 kts | 343° |
| 2026-05-03 20:16 | 39.61106 | 19.91108 | 22 ft | 11 kts | 350° |
| 2026-05-03 20:17 | 39.61170 | 19.91095 | 23 ft | 8 kts | 351° |
| 2026-05-03 20:17 | 39.61197 | 19.91055 | 23 ft | 6 kts | 304° |
| 2026-05-03 20:17 | 39.61230 | 19.90972 | 23 ft | 10 kts | 260° |
| 2026-05-03 20:17 | 39.61214 | 19.90945 | 23 ft | 0 kts | 205° |
| 2026-05-03 20:18 | 39.61191 | 19.90951 | 23 ft | 14 kts | 168° |
| 2026-05-03 20:18 | 39.60815 | 19.91055 | 21 ft | 94 kts | 169° |
| 2026-05-03 20:18 | 39.59960 | 19.91286 | 38 ft | 155 kts | 164° |
| 2026-05-03 20:18 | 39.58892 | 19.91579 | 711 ft | 158 kts | 166° |
| 2026-05-03 20:19 | 39.57965 | 19.92296 | 1377 ft | 161 kts | 124° |
| 2026-05-03 20:19 | 39.57619 | 19.93689 | 2001 ft | 171 kts | 89° |
| 2026-05-03 20:19 | 39.57690 | 19.95294 | 2174 ft | 193 kts | 88° |
| 2026-05-03 20:19 | 39.57617 | 19.97150 | 2331 ft | 216 kts | 103° |
| 2026-05-03 20:20 | 39.57094 | 19.99005 | 2895 ft | 221 kts | 115° |
| 2026-05-03 20:20 | 39.56392 | 20.00783 | 3547 ft | 223 kts | 117° |
| 2026-05-03 20:20 | 39.55646 | 20.02558 | 4159 ft | 226 kts | 117° |
| 2026-05-03 20:20 | 39.54905 | 20.04338 | 4773 ft | 228 kts | 117° |
| 2026-05-03 20:21 | 39.54164 | 20.06164 | 5379 ft | 230 kts | 116° |
| 2026-05-03 20:21 | 39.53426 | 20.08023 | 5973 ft | 233 kts | 114° |
| 2026-05-03 20:21 | 39.52987 | 20.10030 | 6535 ft | 233 kts | 88° |
| 2026-05-03 20:21 | 39.53288 | 20.12054 | 7078 ft | 230 kts | 60° |
| 2026-05-03 20:22 | 39.54270 | 20.13645 | 7641 ft | 226 kts | 33° |
| 2026-05-03 20:22 | 39.55682 | 20.14462 | 8227 ft | 223 kts | 7° |
| 2026-05-03 20:22 | 39.57220 | 20.14365 | 8847 ft | 223 kts | 343° |
| 2026-05-03 20:22 | 39.58570 | 20.13383 | 9456 ft | 227 kts | 318° |
| 2026-05-03 20:23 | 39.59450 | 20.11667 | 10044 ft | 235 kts | 292° |
| 2026-05-03 20:23 | 39.59783 | 20.09552 | 10345 ft | 253 kts | 287° |
| 2026-05-03 20:23 | 39.60482 | 20.07401 | 10490 ft | 269 kts | 307° |
| 2026-05-03 20:23 | 39.61664 | 20.05408 | 10623 ft | 290 kts | 314° |
| 2026-05-03 20:24 | 39.63066 | 20.03394 | 10748 ft | 312 kts | 315° |
| 2026-05-03 20:24 | 39.64578 | 20.01247 | 10916 ft | 331 kts | 315° |
| 2026-05-03 20:24 | 39.66116 | 19.98967 | 11420 ft | 338 kts | 313° |
| 2026-05-03 20:24 | 39.67624 | 19.96604 | 12057 ft | 342 kts | 312° |
| 2026-05-03 20:25 | 39.69110 | 19.94177 | 12713 ft | 344 kts | 311° |
| 2026-05-03 20:25 | 39.70584 | 19.91709 | 13351 ft | 347 kts | 311° |
| 2026-05-03 20:25 | 39.72057 | 19.89216 | 13976 ft | 349 kts | 311° |
| 2026-05-03 20:25 | 39.73520 | 19.86734 | 14496 ft | 352 kts | 311° |
| 2026-05-03 20:26 | 39.75013 | 19.84208 | 15042 ft | 354 kts | 312° |
| 2026-05-03 20:26 | 39.76521 | 19.81661 | 15613 ft | 356 kts | 312° |
| 2026-05-03 20:26 | 39.78038 | 19.79106 | 16182 ft | 358 kts | 312° |
| 2026-05-03 20:26 | 39.79567 | 19.76535 | 16735 ft | 360 kts | 313° |
| 2026-05-03 20:27 | 39.81105 | 19.73949 | 17283 ft | 363 kts | 313° |
| 2026-05-03 20:27 | 39.82652 | 19.71346 | 17827 ft | 365 kts | 313° |
| 2026-05-03 20:27 | 39.84190 | 19.68759 | 18359 ft | 367 kts | 313° |
| 2026-05-03 20:27 | 39.85757 | 19.66118 | 18827 ft | 370 kts | 313° |
| 2026-05-03 20:28 | 39.87329 | 19.63460 | 19304 ft | 372 kts | 313° |
| 2026-05-03 20:28 | 39.88908 | 19.60781 | 19774 ft | 374 kts | 313° |
| 2026-05-03 20:28 | 39.90496 | 19.58087 | 20234 ft | 376 kts | 313° |
| 2026-05-03 20:28 | 39.92093 | 19.55378 | 20689 ft | 378 kts | 313° |
| 2026-05-03 20:29 | 39.93702 | 19.52655 | 21126 ft | 380 kts | 313° |
| 2026-05-03 20:29 | 39.95316 | 19.49920 | 21554 ft | 382 kts | 313° |
| 2026-05-03 20:29 | 39.96921 | 19.47201 | 21971 ft | 384 kts | 313° |
| 2026-05-03 20:29 | 39.98550 | 19.44432 | 22385 ft | 386 kts | 313° |
| 2026-05-03 20:30 | 40.00187 | 19.41644 | 22782 ft | 388 kts | 313° |
| 2026-05-03 20:30 | 40.01831 | 19.38840 | 23166 ft | 391 kts | 313° |
| 2026-05-03 20:30 | 40.03486 | 19.36018 | 23536 ft | 393 kts | 313° |
| 2026-05-03 20:30 | 40.05150 | 19.33176 | 23860 ft | 395 kts | 313° |
| 2026-05-03 20:31 | 40.06819 | 19.30319 | 24163 ft | 397 kts | 312° |
| 2026-05-03 20:31 | 40.08497 | 19.27448 | 24470 ft | 398 kts | 312° |
| 2026-05-03 20:31 | 40.10178 | 19.24567 | 24773 ft | 400 kts | 312° |
| 2026-05-03 20:31 | 40.11866 | 19.21671 | 25064 ft | 402 kts | 312° |
| 2026-05-03 20:32 | 40.13564 | 19.18762 | 25360 ft | 403 kts | 312° |
| 2026-05-03 20:32 | 40.15241 | 19.15885 | 25631 ft | 405 kts | 312° |
| 2026-05-03 20:32 | 40.16951 | 19.12953 | 25904 ft | 406 kts | 312° |
| 2026-05-03 20:32 | 40.18669 | 19.10006 | 26175 ft | 408 kts | 312° |
| 2026-05-03 20:33 | 40.20390 | 19.07051 | 26442 ft | 409 kts | 312° |
| 2026-05-03 20:33 | 40.22118 | 19.04078 | 26712 ft | 411 kts | 312° |
| 2026-05-03 20:33 | 40.23849 | 19.01092 | 26966 ft | 412 kts | 312° |
| 2026-05-03 20:33 | 40.25729 | 18.98281 | 27207 ft | 410 kts | 318° |
| 2026-05-03 20:34 | 40.27710 | 18.95581 | 27446 ft | 412 kts | 318° |
| 2026-05-03 20:34 | 40.29673 | 18.92913 | 27671 ft | 413 kts | 318° |
| 2026-05-03 20:34 | 40.31667 | 18.90200 | 27912 ft | 414 kts | 318° |
| 2026-05-03 20:34 | 40.33667 | 18.87475 | 28136 ft | 416 kts | 318° |
| 2026-05-03 20:35 | 40.35672 | 18.84739 | 28355 ft | 417 kts | 318° |
| 2026-05-03 20:35 | 40.37684 | 18.81993 | 28568 ft | 418 kts | 318° |
| 2026-05-03 20:35 | 40.39700 | 18.79241 | 28772 ft | 419 kts | 318° |
| 2026-05-03 20:35 | 40.41723 | 18.76473 | 28968 ft | 420 kts | 318° |
| 2026-05-03 20:36 | 40.43742 | 18.73700 | 29176 ft | 421 kts | 318° |
| 2026-05-03 20:36 | 40.45761 | 18.70922 | 29457 ft | 420 kts | 318° |
| 2026-05-03 20:36 | 40.47744 | 18.68187 | 29731 ft | 419 kts | 317° |
| 2026-05-03 20:36 | 40.49750 | 18.65421 | 30003 ft | 418 kts | 317° |
| 2026-05-03 20:37 | 40.51754 | 18.62662 | 30266 ft | 417 kts | 317° |
| 2026-05-03 20:37 | 40.53757 | 18.59905 | 30484 ft | 416 kts | 317° |
| 2026-05-03 20:37 | 40.55753 | 18.57158 | 30714 ft | 415 kts | 317° |
| 2026-05-03 20:37 | 40.57747 | 18.54410 | 30946 ft | 414 kts | 317° |
| 2026-05-03 20:38 | 40.59728 | 18.51674 | 31187 ft | 413 kts | 317° |
| 2026-05-03 20:38 | 40.61707 | 18.48934 | 31412 ft | 412 kts | 317° |
| 2026-05-03 20:38 | 40.63677 | 18.46200 | 31646 ft | 411 kts | 317° |
| 2026-05-03 20:38 | 40.65615 | 18.43510 | 31878 ft | 410 kts | 317° |
| 2026-05-03 20:39 | 40.67578 | 18.40786 | 32111 ft | 409 kts | 317° |
| 2026-05-03 20:39 | 40.69531 | 18.38079 | 32347 ft | 408 kts | 317° |
| 2026-05-03 20:39 | 40.71483 | 18.35373 | 32586 ft | 406 kts | 317° |
| 2026-05-03 20:39 | 40.73427 | 18.32675 | 32827 ft | 405 kts | 317° |
| 2026-05-03 20:40 | 40.75362 | 18.29982 | 33060 ft | 404 kts | 317° |
| 2026-05-03 20:40 | 40.77292 | 18.27295 | 33293 ft | 403 kts | 317° |
| 2026-05-03 20:40 | 40.79213 | 18.24617 | 33527 ft | 401 kts | 317° |
| 2026-05-03 20:40 | 40.81131 | 18.21942 | 33768 ft | 400 kts | 317° |
| 2026-05-03 20:41 | 40.83013 | 18.19313 | 33999 ft | 399 kts | 317° |
| 2026-05-03 20:41 | 40.84913 | 18.16653 | 34119 ft | 398 kts | 317° |
| 2026-05-03 20:41 | 40.86811 | 18.13993 | 34136 ft | 397 kts | 317° |
| 2026-05-03 20:42 | 40.90595 | 18.08686 | 34134 ft | 396 kts | 317° |
| 2026-05-03 20:42 | 40.94625 | 18.03798 | 34136 ft | 391 kts | 329° |
| 2026-05-03 20:43 | 40.99282 | 18.00103 | 34136 ft | 390 kts | 331° |
| 2026-05-03 20:43 | 41.03910 | 17.96442 | 34135 ft | 390 kts | 330° |
| 2026-05-03 20:44 | 41.08571 | 17.92743 | 34135 ft | 390 kts | 330° |
| 2026-05-03 20:44 | 41.13232 | 17.89041 | 34135 ft | 390 kts | 330° |
| 2026-05-03 20:45 | 41.17891 | 17.85333 | 34136 ft | 390 kts | 330° |
| 2026-05-03 20:45 | 41.22512 | 17.81646 | 34131 ft | 390 kts | 330° |
| 2026-05-03 20:46 | 41.27168 | 17.77931 | 34134 ft | 390 kts | 330° |
| 2026-05-03 20:46 | 41.31820 | 17.74214 | 34131 ft | 390 kts | 330° |
| 2026-05-03 20:47 | 41.36450 | 17.70506 | 34130 ft | 390 kts | 330° |
| 2026-05-03 20:47 | 41.41104 | 17.66762 | 34133 ft | 391 kts | 330° |
| 2026-05-03 20:48 | 41.45756 | 17.63016 | 34132 ft | 391 kts | 330° |
| 2026-05-03 20:48 | 41.50414 | 17.59271 | 34140 ft | 391 kts | 330° |
| 2026-05-03 20:49 | 41.55042 | 17.55542 | 34128 ft | 391 kts | 330° |
| 2026-05-03 20:49 | 41.59705 | 17.51775 | 34124 ft | 392 kts | 330° |
| 2026-05-03 20:50 | 41.64368 | 17.47996 | 34122 ft | 392 kts | 330° |
| 2026-05-03 20:50 | 41.69032 | 17.44213 | 34111 ft | 392 kts | 330° |
| 2026-05-03 20:51 | 41.73701 | 17.40423 | 34110 ft | 392 kts | 330° |
| 2026-05-03 20:51 | 41.78340 | 17.36652 | 34112 ft | 393 kts | 330° |
| 2026-05-03 20:52 | 41.83011 | 17.32842 | 34109 ft | 393 kts | 330° |
| 2026-05-03 20:52 | 41.87682 | 17.29035 | 34107 ft | 393 kts | 330° |
| 2026-05-03 20:53 | 41.92319 | 17.25134 | 34107 ft | 395 kts | 324° |
| 2026-05-03 20:53 | 41.96258 | 17.19939 | 34104 ft | 399 kts | 316° |
| 2026-05-03 20:54 | 42.00035 | 17.14543 | 34102 ft | 400 kts | 316° |
| 2026-05-03 20:54 | 42.05756 | 17.06357 | 34101 ft | 401 kts | 316° |
| 2026-05-03 20:55 | 42.09567 | 17.00870 | 34103 ft | 402 kts | 316° |
| 2026-05-03 20:55 | 42.13387 | 16.95376 | 34100 ft | 402 kts | 316° |
| 2026-05-03 20:56 | 42.17195 | 16.89900 | 34104 ft | 403 kts | 316° |
| 2026-05-03 20:56 | 42.21021 | 16.84381 | 34100 ft | 403 kts | 316° |
| 2026-05-03 20:57 | 42.24853 | 16.78840 | 34101 ft | 404 kts | 316° |
| 2026-05-03 20:57 | 42.28679 | 16.73282 | 34099 ft | 405 kts | 316° |
| 2026-05-03 20:58 | 42.32492 | 16.67747 | 34099 ft | 405 kts | 316° |
| 2026-05-03 20:58 | 42.36329 | 16.62157 | 34095 ft | 406 kts | 316° |
| 2026-05-03 20:59 | 42.40173 | 16.56548 | 34095 ft | 407 kts | 315° |
| 2026-05-03 20:59 | 42.44018 | 16.50931 | 34094 ft | 407 kts | 315° |
| 2026-05-03 21:00 | 42.47219 | 16.46255 | 34100 ft | 408 kts | 315° |
| 2026-05-03 21:00 | 42.51696 | 16.39694 | 34090 ft | 408 kts | 315° |
| 2026-05-03 21:01 | 42.55550 | 16.34031 | 34095 ft | 409 kts | 315° |
| 2026-05-03 21:01 | 42.59407 | 16.28350 | 34095 ft | 409 kts | 315° |
| 2026-05-03 21:02 | 42.63234 | 16.22706 | 34097 ft | 410 kts | 315° |
| 2026-05-03 21:02 | 42.67096 | 16.17003 | 34102 ft | 410 kts | 315° |
| 2026-05-03 21:03 | 42.70951 | 16.11285 | 34096 ft | 410 kts | 315° |
| 2026-05-03 21:03 | 42.74808 | 16.05559 | 34111 ft | 410 kts | 315° |
| 2026-05-03 21:04 | 42.78665 | 15.99825 | 34111 ft | 411 kts | 315° |
| 2026-05-03 21:04 | 42.82495 | 15.94122 | 34106 ft | 411 kts | 314° |
| 2026-05-03 21:05 | 42.86348 | 15.88361 | 34108 ft | 411 kts | 314° |
| 2026-05-03 21:05 | 42.90204 | 15.82587 | 34110 ft | 412 kts | 314° |
| 2026-05-03 21:06 | 42.94058 | 15.76800 | 34111 ft | 412 kts | 314° |
| 2026-05-03 21:06 | 42.97890 | 15.71039 | 34112 ft | 412 kts | 314° |
| 2026-05-03 21:07 | 43.01753 | 15.65244 | 34113 ft | 413 kts | 314° |
| 2026-05-03 21:07 | 43.05607 | 15.59435 | 34109 ft | 413 kts | 314° |
| 2026-05-03 21:08 | 43.09457 | 15.53615 | 34111 ft | 412 kts | 314° |
| 2026-05-03 21:08 | 43.13277 | 15.47825 | 34107 ft | 412 kts | 314° |
| 2026-05-03 21:09 | 43.17120 | 15.41995 | 34107 ft | 412 kts | 314° |
| 2026-05-03 21:09 | 43.20959 | 15.36154 | 34110 ft | 412 kts | 314° |
| 2026-05-03 21:10 | 43.24636 | 15.30552 | 34111 ft | 412 kts | 314° |
| 2026-05-03 21:10 | 43.28439 | 15.24740 | 34111 ft | 412 kts | 314° |
| 2026-05-03 21:11 | 43.32259 | 15.18885 | 34111 ft | 412 kts | 314° |
| 2026-05-03 21:11 | 43.36087 | 15.13027 | 34111 ft | 411 kts | 314° |
| 2026-05-03 21:12 | 43.39906 | 15.07176 | 34107 ft | 411 kts | 314° |
| 2026-05-03 21:12 | 43.43714 | 15.01318 | 34112 ft | 411 kts | 313° |
| 2026-05-03 21:13 | 43.47486 | 14.95483 | 34108 ft | 410 kts | 313° |
| 2026-05-03 21:13 | 43.51283 | 14.89618 | 34112 ft | 410 kts | 313° |
| 2026-05-03 21:14 | 43.55075 | 14.83747 | 34106 ft | 410 kts | 313° |
| 2026-05-03 21:14 | 43.58864 | 14.77880 | 34107 ft | 410 kts | 313° |
| 2026-05-03 21:15 | 43.62622 | 14.72038 | 34110 ft | 409 kts | 313° |
| 2026-05-03 21:15 | 43.66402 | 14.66155 | 34107 ft | 409 kts | 313° |
| 2026-05-03 21:16 | 43.70166 | 14.60268 | 34104 ft | 409 kts | 313° |
| 2026-05-03 21:16 | 43.73933 | 14.54377 | 34103 ft | 409 kts | 313° |
| 2026-05-03 21:17 | 43.77061 | 14.49477 | 34104 ft | 409 kts | 313° |
| 2026-05-03 21:17 | 43.81450 | 14.42586 | 34104 ft | 409 kts | 313° |
| 2026-05-03 21:18 | 43.85178 | 14.36727 | 34104 ft | 409 kts | 313° |
| 2026-05-03 21:18 | 43.88931 | 14.30801 | 34104 ft | 409 kts | 313° |
| 2026-05-03 21:19 | 43.92686 | 14.24855 | 34103 ft | 409 kts | 313° |
| 2026-05-03 21:19 | 43.96442 | 14.18909 | 34101 ft | 410 kts | 313° |
| 2026-05-03 21:20 | 44.00168 | 14.12999 | 34102 ft | 410 kts | 313° |
| 2026-05-03 21:20 | 44.03920 | 14.07025 | 34101 ft | 410 kts | 313° |
| 2026-05-03 21:21 | 44.07670 | 14.01045 | 34099 ft | 411 kts | 313° |
| 2026-05-03 21:21 | 44.11427 | 13.95051 | 34098 ft | 411 kts | 312° |
| 2026-05-03 21:22 | 44.15158 | 13.89081 | 34098 ft | 412 kts | 312° |
| 2026-05-03 21:22 | 44.18915 | 13.83055 | 34097 ft | 412 kts | 312° |
| 2026-05-03 21:23 | 44.22669 | 13.77012 | 34096 ft | 413 kts | 312° |
| 2026-05-03 21:23 | 44.26432 | 13.70937 | 34102 ft | 414 kts | 311° |
| 2026-05-03 21:24 | 44.30202 | 13.64855 | 34104 ft | 414 kts | 311° |
| 2026-05-03 21:24 | 44.33946 | 13.58806 | 34097 ft | 415 kts | 311° |
| 2026-05-03 21:25 | 44.37712 | 13.52699 | 34099 ft | 415 kts | 311° |
| 2026-05-03 21:25 | 44.41480 | 13.46575 | 34101 ft | 415 kts | 311° |
| 2026-05-03 21:26 | 44.45295 | 13.40504 | 34102 ft | 415 kts | 312° |
| 2026-05-03 21:26 | 44.49136 | 13.34534 | 34097 ft | 416 kts | 312° |
| 2026-05-03 21:27 | 44.53013 | 13.28515 | 34097 ft | 416 kts | 312° |
| 2026-05-03 21:27 | 44.56879 | 13.22452 | 34094 ft | 417 kts | 311° |
| 2026-05-03 21:28 | 44.60731 | 13.16385 | 34094 ft | 417 kts | 311° |
| 2026-05-03 21:28 | 44.64565 | 13.10326 | 34092 ft | 418 kts | 311° |
| 2026-05-03 21:29 | 44.68419 | 13.04207 | 34093 ft | 419 kts | 311° |
| 2026-05-03 21:29 | 44.72276 | 12.98075 | 34098 ft | 419 kts | 311° |
| 2026-05-03 21:30 | 44.76136 | 12.91933 | 34097 ft | 419 kts | 311° |
| 2026-05-03 21:30 | 44.80006 | 12.85770 | 34095 ft | 420 kts | 311° |
| 2026-05-03 21:31 | 44.83854 | 12.79639 | 34094 ft | 421 kts | 310° |
| 2026-05-03 21:31 | 44.87724 | 12.73447 | 34095 ft | 421 kts | 310° |
| 2026-05-03 21:32 | 44.91596 | 12.67234 | 34096 ft | 422 kts | 310° |
| 2026-05-03 21:32 | 44.95466 | 12.61013 | 34092 ft | 422 kts | 310° |
| 2026-05-03 21:33 | 44.99341 | 12.54771 | 34093 ft | 422 kts | 310° |
| 2026-05-03 21:33 | 45.03172 | 12.48572 | 34081 ft | 422 kts | 310° |
| 2026-05-03 21:34 | 45.06901 | 12.42541 | 34076 ft | 422 kts | 310° |
| 2026-05-03 21:34 | 45.10768 | 12.36275 | 34071 ft | 423 kts | 309° |
| 2026-05-03 21:35 | 45.14636 | 12.29995 | 34073 ft | 423 kts | 309° |
| 2026-05-03 21:35 | 45.18508 | 12.23695 | 34079 ft | 424 kts | 309° |
| 2026-05-03 21:36 | 45.22381 | 12.17364 | 34086 ft | 425 kts | 309° |
| 2026-05-03 21:36 | 45.26228 | 12.11058 | 34090 ft | 426 kts | 309° |
| 2026-05-03 21:37 | 45.30108 | 12.04699 | 34101 ft | 426 kts | 309° |
| 2026-05-03 21:37 | 45.33983 | 11.98333 | 34101 ft | 427 kts | 309° |
| 2026-05-03 21:38 | 45.37866 | 11.91928 | 34107 ft | 427 kts | 308° |
| 2026-05-03 21:38 | 45.41748 | 11.85513 | 34105 ft | 428 kts | 308° |
| 2026-05-03 21:39 | 45.45606 | 11.79131 | 34102 ft | 429 kts | 308° |
| 2026-05-03 21:39 | 45.49497 | 11.72684 | 34097 ft | 429 kts | 308° |
| 2026-05-03 21:40 | 45.53385 | 11.66222 | 34095 ft | 430 kts | 308° |
| 2026-05-03 21:40 | 45.57273 | 11.59738 | 34094 ft | 431 kts | 308° |
| 2026-05-03 21:41 | 45.61170 | 11.53226 | 34094 ft | 431 kts | 308° |
| 2026-05-03 21:41 | 45.65037 | 11.46751 | 34099 ft | 432 kts | 308° |
| 2026-05-03 21:42 | 45.68945 | 11.40190 | 34110 ft | 433 kts | 308° |
| 2026-05-03 21:42 | 45.72850 | 11.33626 | 34117 ft | 434 kts | 308° |
| 2026-05-03 21:43 | 45.76760 | 11.27030 | 34130 ft | 435 kts | 308° |
| 2026-05-03 21:43 | 45.80645 | 11.20460 | 34145 ft | 435 kts | 308° |
| 2026-05-03 21:44 | 45.84554 | 11.13847 | 34157 ft | 435 kts | 308° |
| 2026-05-03 21:44 | 45.88458 | 11.07219 | 34173 ft | 435 kts | 307° |
| 2026-05-03 21:45 | 45.92360 | 11.00576 | 34184 ft | 435 kts | 307° |
| 2026-05-03 21:45 | 45.96269 | 10.93905 | 34195 ft | 436 kts | 307° |
| 2026-05-03 21:46 | 46.00135 | 10.87283 | 34208 ft | 436 kts | 307° |
| 2026-05-03 21:46 | 46.04035 | 10.80604 | 34219 ft | 436 kts | 307° |
| 2026-05-03 21:47 | 46.07924 | 10.73922 | 34225 ft | 435 kts | 307° |
| 2026-05-03 21:47 | 46.11810 | 10.67220 | 34227 ft | 435 kts | 307° |
| 2026-05-03 21:48 | 46.15652 | 10.60576 | 34227 ft | 435 kts | 307° |
| 2026-05-03 21:48 | 46.19521 | 10.53869 | 34221 ft | 434 kts | 307° |
| 2026-05-03 21:49 | 46.23386 | 10.47161 | 34211 ft | 435 kts | 307° |
| 2026-05-03 21:49 | 46.27252 | 10.40435 | 34207 ft | 435 kts | 306° |
| 2026-05-03 21:50 | 46.31083 | 10.33752 | 34193 ft | 435 kts | 307° |
| 2026-05-03 21:50 | 46.34939 | 10.27020 | 34194 ft | 435 kts | 306° |
| 2026-05-03 21:51 | 46.38777 | 10.20268 | 34192 ft | 434 kts | 306° |
| 2026-05-03 21:51 | 46.42617 | 10.13501 | 34200 ft | 434 kts | 307° |
| 2026-05-03 21:52 | 46.46459 | 10.06744 | 34191 ft | 434 kts | 307° |
| 2026-05-03 21:52 | 46.50313 | 10.00080 | 34211 ft | 434 kts | 308° |
| 2026-05-03 21:53 | 46.54333 | 9.93520 | 34199 ft | 435 kts | 309° |
| 2026-05-03 21:53 | 46.58375 | 9.86989 | 34211 ft | 434 kts | 309° |
| 2026-05-03 21:54 | 46.62375 | 9.80409 | 34195 ft | 434 kts | 308° |
| 2026-05-03 21:54 | 46.66324 | 9.73848 | 34185 ft | 434 kts | 308° |
| 2026-05-03 21:55 | 46.70294 | 9.67247 | 34170 ft | 434 kts | 308° |
| 2026-05-03 21:55 | 46.74269 | 9.60626 | 34141 ft | 434 kts | 308° |
| 2026-05-03 21:56 | 46.78252 | 9.54005 | 34111 ft | 434 kts | 308° |
| 2026-05-03 21:56 | 46.82223 | 9.47378 | 34101 ft | 434 kts | 308° |
| 2026-05-03 21:57 | 46.86160 | 9.40781 | 34083 ft | 434 kts | 308° |
| 2026-05-03 21:57 | 46.90120 | 9.34128 | 34082 ft | 434 kts | 307° |
| 2026-05-03 21:58 | 46.94073 | 9.27466 | 34080 ft | 434 kts | 307° |
| 2026-05-03 21:58 | 46.98032 | 9.20781 | 34075 ft | 434 kts | 307° |
| 2026-05-03 21:59 | 47.01965 | 9.14134 | 34077 ft | 434 kts | 307° |
| 2026-05-03 21:59 | 47.05915 | 9.07429 | 34086 ft | 435 kts | 307° |
| 2026-05-03 22:00 | 47.09866 | 9.00711 | 34082 ft | 434 kts | 307° |
| 2026-05-03 22:00 | 47.13772 | 8.94029 | 34082 ft | 434 kts | 305° |
| 2026-05-03 22:01 | 47.16785 | 8.86492 | 34084 ft | 426 kts | 288° |
| 2026-05-03 22:01 | 47.18855 | 8.78333 | 34082 ft | 426 kts | 288° |
| 2026-05-03 22:02 | 47.20934 | 8.70178 | 34084 ft | 426 kts | 287° |
| 2026-05-03 22:02 | 47.23009 | 8.62021 | 34091 ft | 426 kts | 287° |
| 2026-05-03 22:03 | 47.25061 | 8.53902 | 34091 ft | 426 kts | 287° |
| 2026-05-03 22:03 | 47.27124 | 8.45722 | 34087 ft | 426 kts | 287° |
| 2026-05-03 22:04 | 47.29182 | 8.37531 | 34091 ft | 426 kts | 287° |
| 2026-05-03 22:04 | 47.31231 | 8.29340 | 34085 ft | 426 kts | 287° |
| 2026-05-03 22:05 | 47.33258 | 8.21184 | 34093 ft | 426 kts | 287° |
| 2026-05-03 22:05 | 47.35297 | 8.12970 | 34091 ft | 426 kts | 287° |
| 2026-05-03 22:06 | 47.37329 | 8.04758 | 34085 ft | 426 kts | 287° |
| 2026-05-03 22:06 | 47.39349 | 7.96545 | 34078 ft | 426 kts | 286° |
| 2026-05-03 22:07 | 47.41030 | 7.89699 | 34074 ft | 427 kts | 286° |
| 2026-05-03 22:07 | 47.43241 | 7.80676 | 34058 ft | 427 kts | 286° |
| 2026-05-03 22:08 | 47.45248 | 7.72409 | 34279 ft | 428 kts | 286° |
| 2026-05-03 22:08 | 47.46252 | 7.68267 | 34454 ft | 428 kts | 286° |
| 2026-05-03 22:08 | 47.47263 | 7.64135 | 34638 ft | 429 kts | 287° |
| 2026-05-03 22:09 | 47.47965 | 7.61397 | 34768 ft | 429 kts | 288° |
| 2026-05-03 22:09 | 47.49060 | 7.57300 | 34952 ft | 430 kts | 288° |
| 2026-05-03 22:09 | 47.50185 | 7.53193 | 35115 ft | 430 kts | 288° |
| 2026-05-03 22:10 | 47.52790 | 7.43669 | 35510 ft | 429 kts | 288° |
| 2026-05-03 22:10 | 47.53896 | 7.39563 | 35677 ft | 429 kts | 288° |
| 2026-05-03 22:10 | 47.54619 | 7.36852 | 35775 ft | 429 kts | 288° |
| 2026-05-03 22:10 | 47.55710 | 7.32738 | 35934 ft | 429 kts | 288° |
| 2026-05-03 22:11 | 47.56795 | 7.28618 | 36045 ft | 429 kts | 288° |
| 2026-05-03 22:11 | 47.58953 | 7.20388 | 36057 ft | 429 kts | 288° |
| 2026-05-03 22:12 | 47.61120 | 7.12141 | 36058 ft | 429 kts | 288° |
| 2026-05-03 22:12 | 47.63164 | 7.04353 | 36060 ft | 429 kts | 288° |
| 2026-05-03 22:13 | 47.65308 | 6.96145 | 36061 ft | 430 kts | 288° |
| 2026-05-03 22:13 | 47.67456 | 6.87883 | 36061 ft | 430 kts | 287° |
| 2026-05-03 22:14 | 47.69605 | 6.79590 | 36064 ft | 430 kts | 287° |
| 2026-05-03 22:14 | 47.71744 | 6.71294 | 36064 ft | 431 kts | 287° |
| 2026-05-03 22:15 | 47.73887 | 6.62985 | 36068 ft | 431 kts | 287° |
| 2026-05-03 22:15 | 47.76008 | 6.54725 | 36061 ft | 431 kts | 287° |
| 2026-05-03 22:16 | 47.78129 | 6.46405 | 36059 ft | 431 kts | 287° |
| 2026-05-03 22:16 | 47.80250 | 6.38073 | 36060 ft | 431 kts | 287° |
| 2026-05-03 22:17 | 47.82373 | 6.29728 | 36056 ft | 431 kts | 287° |
| 2026-05-03 22:17 | 47.84474 | 6.21435 | 36049 ft | 431 kts | 287° |
| 2026-05-03 22:18 | 47.86579 | 6.13071 | 36047 ft | 431 kts | 287° |
| 2026-05-03 22:18 | 47.88681 | 6.04709 | 36044 ft | 431 kts | 287° |
| 2026-05-03 22:19 | 47.90781 | 5.96322 | 36043 ft | 431 kts | 287° |
| 2026-05-03 22:19 | 47.92852 | 5.88003 | 36037 ft | 431 kts | 287° |
| 2026-05-03 22:20 | 47.94927 | 5.79622 | 36041 ft | 431 kts | 287° |
| 2026-05-03 22:20 | 47.97003 | 5.71224 | 36032 ft | 431 kts | 287° |
| 2026-05-03 22:21 | 47.99073 | 5.62830 | 36035 ft | 431 kts | 287° |
| 2026-05-03 22:21 | 48.01136 | 5.54423 | 36035 ft | 431 kts | 287° |
| 2026-05-03 22:22 | 48.03181 | 5.46070 | 36036 ft | 431 kts | 286° |
| 2026-05-03 22:22 | 48.05232 | 5.37647 | 36028 ft | 431 kts | 286° |
| 2026-05-03 22:23 | 48.07268 | 5.29213 | 36031 ft | 431 kts | 286° |
| 2026-05-03 22:23 | 48.09301 | 5.20775 | 36031 ft | 431 kts | 286° |
| 2026-05-03 22:24 | 48.11631 | 5.12553 | 36026 ft | 434 kts | 292° |
| 2026-05-03 22:24 | 48.14297 | 5.04437 | 36022 ft | 434 kts | 292° |
| 2026-05-03 22:25 | 48.16960 | 4.96332 | 36025 ft | 434 kts | 292° |
| 2026-05-03 22:25 | 48.19613 | 4.88218 | 36022 ft | 433 kts | 291° |
| 2026-05-03 22:26 | 48.22254 | 4.80111 | 36015 ft | 433 kts | 291° |
| 2026-05-03 22:26 | 48.24870 | 4.72069 | 36009 ft | 432 kts | 291° |
| 2026-05-03 22:27 | 48.27871 | 4.64214 | 36014 ft | 439 kts | 304° |
| 2026-05-03 22:27 | 48.32372 | 4.57904 | 35995 ft | 447 kts | 318° |
| 2026-05-03 22:28 | 48.37309 | 4.52199 | 35990 ft | 447 kts | 317° |
| 2026-05-03 22:28 | 48.42193 | 4.46492 | 35986 ft | 447 kts | 317° |
| 2026-05-03 22:29 | 48.47091 | 4.40719 | 35986 ft | 447 kts | 317° |
| 2026-05-03 22:29 | 48.51991 | 4.34935 | 35982 ft | 448 kts | 317° |
| 2026-05-03 22:30 | 48.56903 | 4.29142 | 35982 ft | 448 kts | 317° |
| 2026-05-03 22:30 | 48.61771 | 4.23379 | 35975 ft | 448 kts | 317° |
| 2026-05-03 22:31 | 48.66671 | 4.17565 | 35977 ft | 448 kts | 317° |
| 2026-05-03 22:31 | 48.71580 | 4.11739 | 35972 ft | 448 kts | 316° |
| 2026-05-03 22:32 | 48.76482 | 4.05895 | 35971 ft | 449 kts | 316° |
| 2026-05-03 22:32 | 48.81389 | 4.00027 | 35968 ft | 449 kts | 316° |
| 2026-05-03 22:33 | 48.86255 | 3.94194 | 35966 ft | 449 kts | 316° |
| 2026-05-03 22:33 | 48.91158 | 3.88302 | 35963 ft | 450 kts | 316° |
| 2026-05-03 22:34 | 48.96068 | 3.82402 | 35962 ft | 450 kts | 316° |
| 2026-05-03 22:34 | 49.00976 | 3.76479 | 35960 ft | 450 kts | 316° |
| 2026-05-03 22:35 | 49.05849 | 3.70559 | 35961 ft | 451 kts | 316° |
| 2026-05-03 22:35 | 49.10746 | 3.64603 | 35954 ft | 451 kts | 316° |
| 2026-05-03 22:36 | 49.15665 | 3.58622 | 35654 ft | 452 kts | 316° |
| 2026-05-03 22:36 | 49.18121 | 3.55629 | 35405 ft | 452 kts | 316° |
| 2026-05-03 22:36 | 49.20580 | 3.52628 | 34982 ft | 453 kts | 316° |
| 2026-05-03 22:36 | 49.23061 | 3.49588 | 34025 ft | 459 kts | 315° |
| 2026-05-03 22:37 | 49.25523 | 3.46570 | 33030 ft | 462 kts | 315° |
| 2026-05-03 22:37 | 49.28039 | 3.43485 | 32054 ft | 464 kts | 315° |
| 2026-05-03 22:37 | 49.30575 | 3.40375 | 31069 ft | 467 kts | 315° |
| 2026-05-03 22:37 | 49.33114 | 3.37257 | 30101 ft | 470 kts | 315° |
| 2026-05-03 22:38 | 49.35669 | 3.34116 | 29038 ft | 472 kts | 315° |
| 2026-05-03 22:38 | 49.38198 | 3.31009 | 28570 ft | 461 kts | 315° |
| 2026-05-03 22:38 | 49.40685 | 3.27945 | 27875 ft | 456 kts | 315° |
| 2026-05-03 22:38 | 49.43141 | 3.24911 | 27229 ft | 451 kts | 315° |
| 2026-05-03 22:39 | 49.45575 | 3.21897 | 26579 ft | 447 kts | 315° |
| 2026-05-03 22:39 | 49.47952 | 3.18949 | 25949 ft | 443 kts | 315° |
| 2026-05-03 22:39 | 49.50343 | 3.15979 | 25322 ft | 440 kts | 316° |
| 2026-05-03 22:39 | 49.52711 | 3.13036 | 24707 ft | 436 kts | 316° |
| 2026-05-03 22:40 | 49.55068 | 3.10105 | 24085 ft | 433 kts | 316° |
| 2026-05-03 22:40 | 49.57403 | 3.07199 | 23478 ft | 431 kts | 316° |
| 2026-05-03 22:40 | 49.59721 | 3.04310 | 22838 ft | 427 kts | 316° |
| 2026-05-03 22:40 | 49.62021 | 3.01439 | 22286 ft | 422 kts | 316° |
| 2026-05-03 22:41 | 49.64287 | 2.98604 | 21755 ft | 418 kts | 316° |
| 2026-05-03 22:41 | 49.66534 | 2.95788 | 21247 ft | 413 kts | 316° |
| 2026-05-03 22:41 | 49.68723 | 2.93039 | 20754 ft | 410 kts | 316° |
| 2026-05-03 22:41 | 49.70926 | 2.90271 | 20270 ft | 406 kts | 317° |
| 2026-05-03 22:42 | 49.73106 | 2.87530 | 19778 ft | 403 kts | 317° |
| 2026-05-03 22:42 | 49.75275 | 2.84801 | 19317 ft | 401 kts | 317° |
| 2026-05-03 22:42 | 49.77444 | 2.82121 | 18825 ft | 400 kts | 321° |
| 2026-05-03 22:42 | 49.79905 | 2.80105 | 18338 ft | 404 kts | 338° |
| 2026-05-03 22:43 | 49.82658 | 2.79193 | 17791 ft | 407 kts | 355° |
| 2026-05-03 22:43 | 49.85471 | 2.79488 | 17272 ft | 407 kts | 11° |
| 2026-05-03 22:43 | 49.88091 | 2.80933 | 16749 ft | 405 kts | 28° |
| 2026-05-03 22:43 | 49.90488 | 2.83197 | 16217 ft | 403 kts | 33° |
| 2026-05-03 22:44 | 49.92858 | 2.85522 | 15682 ft | 402 kts | 33° |
| 2026-05-03 22:44 | 49.95217 | 2.87847 | 15132 ft | 401 kts | 33° |
| 2026-05-03 22:44 | 49.97572 | 2.90171 | 14603 ft | 401 kts | 33° |
| 2026-05-03 22:44 | 49.99925 | 2.92490 | 14043 ft | 400 kts | 33° |
| 2026-05-03 22:45 | 50.02275 | 2.94805 | 13469 ft | 400 kts | 33° |
| 2026-05-03 22:45 | 50.04621 | 2.97114 | 12893 ft | 398 kts | 33° |
| 2026-05-03 22:45 | 50.06920 | 2.99379 | 12336 ft | 395 kts | 33° |
| 2026-05-03 22:45 | 50.09237 | 3.01669 | 11766 ft | 393 kts | 33° |
| 2026-05-03 22:46 | 50.11538 | 3.03949 | 11188 ft | 391 kts | 33° |
| 2026-05-03 22:46 | 50.13827 | 3.06224 | 10621 ft | 389 kts | 33° |
| 2026-05-03 22:46 | 50.16078 | 3.08456 | 10441 ft | 376 kts | 33° |
| 2026-05-03 22:46 | 50.18240 | 3.10596 | 10308 ft | 361 kts | 33° |
| 2026-05-03 22:47 | 50.20316 | 3.12655 | 10194 ft | 349 kts | 33° |
| 2026-05-03 22:47 | 50.22333 | 3.14662 | 10071 ft | 336 kts | 34° |
| 2026-05-03 22:47 | 50.24149 | 3.16843 | 9946 ft | 324 kts | 41° |
| 2026-05-03 22:47 | 50.25876 | 3.19064 | 9653 ft | 320 kts | 41° |
| 2026-05-03 22:48 | 50.27566 | 3.21246 | 9252 ft | 319 kts | 41° |
| 2026-05-03 22:48 | 50.29274 | 3.23452 | 8886 ft | 317 kts | 41° |
| 2026-05-03 22:48 | 50.30967 | 3.25639 | 8500 ft | 315 kts | 41° |
| 2026-05-03 22:48 | 50.32652 | 3.27818 | 8118 ft | 313 kts | 41° |
| 2026-05-03 22:49 | 50.34328 | 3.29987 | 7738 ft | 312 kts | 41° |
| 2026-05-03 22:49 | 50.35993 | 3.32147 | 7353 ft | 310 kts | 41° |
| 2026-05-03 22:49 | 50.37646 | 3.34295 | 6965 ft | 308 kts | 41° |
| 2026-05-03 22:49 | 50.39424 | 3.36149 | 6590 ft | 307 kts | 26° |
| 2026-05-03 22:50 | 50.41416 | 3.37182 | 6202 ft | 305 kts | 10° |
| 2026-05-03 22:50 | 50.43479 | 3.37845 | 5932 ft | 296 kts | 11° |
| 2026-05-03 22:50 | 50.45431 | 3.38486 | 5626 ft | 281 kts | 11° |
| 2026-05-03 22:50 | 50.47314 | 3.39111 | 5201 ft | 272 kts | 10° |
| 2026-05-03 22:51 | 50.49136 | 3.39716 | 4782 ft | 264 kts | 10° |
| 2026-05-03 22:51 | 50.50926 | 3.39956 | 4346 ft | 254 kts | 352° |
| 2026-05-03 22:51 | 50.52632 | 3.39485 | 3927 ft | 246 kts | 343° |
| 2026-05-03 22:51 | 50.54293 | 3.38904 | 3499 ft | 242 kts | 343° |
| 2026-05-03 22:52 | 50.55911 | 3.38345 | 3180 ft | 233 kts | 343° |
| 2026-05-03 22:52 | 50.57455 | 3.37815 | 2917 ft | 222 kts | 342° |
| 2026-05-03 22:52 | 50.58766 | 3.36875 | 2673 ft | 202 kts | 314° |
| 2026-05-03 22:52 | 50.59563 | 3.35205 | 2467 ft | 183 kts | 288° |
| 2026-05-03 22:53 | 50.59778 | 3.33313 | 2203 ft | 173 kts | 263° |
| 2026-05-03 22:53 | 50.59557 | 3.31501 | 2039 ft | 163 kts | 256° |
| 2026-05-03 22:53 | 50.59323 | 3.29820 | 1989 ft | 149 kts | 256° |
| 2026-05-03 22:53 | 50.59108 | 3.28278 | 1997 ft | 142 kts | 255° |
| 2026-05-03 22:54 | 50.58897 | 3.26776 | 1967 ft | 140 kts | 255° |
| 2026-05-03 22:54 | 50.58689 | 3.25296 | 1820 ft | 138 kts | 256° |
| 2026-05-03 22:54 | 50.58488 | 3.23851 | 1671 ft | 137 kts | 256° |
| 2026-05-03 22:54 | 50.58283 | 3.22388 | 1490 ft | 137 kts | 255° |
| 2026-05-03 22:55 | 50.58078 | 3.20931 | 1317 ft | 137 kts | 256° |
| 2026-05-03 22:55 | 50.57873 | 3.19478 | 1141 ft | 136 kts | 256° |
| 2026-05-03 22:55 | 50.57667 | 3.18032 | 974 ft | 137 kts | 256° |
| 2026-05-03 22:55 | 50.57460 | 3.16550 | 793 ft | 139 kts | 256° |
| 2026-05-03 22:56 | 50.57245 | 3.15056 | 629 ft | 141 kts | 256° |
| 2026-05-03 22:56 | 50.57029 | 3.13533 | 447 ft | 144 kts | 255° |
| 2026-05-03 22:56 | 50.56815 | 3.12019 | 237 ft | 144 kts | 256° |
| 2026-05-03 22:56 | 50.56605 | 3.10571 | 150 ft | 119 kts | 256° |
| 2026-05-03 22:57 | 50.56484 | 3.09669 | 152 ft | 40 kts | 258° |
| 2026-05-03 22:57 | 50.56426 | 3.09257 | 151 ft | 28 kts | 256° |
| 2026-05-03 22:57 | 50.56459 | 3.09082 | 152 ft | 17 kts | 331° |
| 2026-05-03 22:57 | 50.56567 | 3.09051 | 151 ft | 14 kts | 27° |
| 2026-05-03 22:58 | 50.56613 | 3.09166 | 151 ft | 12 kts | 81° |
| 2026-05-03 22:58 | 50.56625 | 3.09286 | 151 ft | 10 kts | 79° |
| 2026-05-03 22:58 | 50.56641 | 3.09387 | 151 ft | 9 kts | 75° |
| 2026-05-03 22:58 | 50.56655 | 3.09471 | 151 ft | 7 kts | 75° |
| 2026-05-03 22:59 | 50.56665 | 3.09552 | 152 ft | 13 kts | 82° |
| 2026-05-03 22:59 | 50.56689 | 3.09733 | 152 ft | 18 kts | 76° |
| 2026-05-03 22:59 | 50.56720 | 3.09935 | 151 ft | 20 kts | 78° |
| 2026-05-03 22:59 | 50.56748 | 3.10155 | 151 ft | 21 kts | 79° |
| 2026-05-03 23:00 | 50.56819 | 3.10337 | 151 ft | 19 kts | 2° |
| 2026-05-03 23:00 | 50.56929 | 3.10300 | 151 ft | 15 kts | 349° |
| 2026-05-03 23:00 | 50.56993 | 3.10382 | 151 ft | 13 kts | 77° |
| 2026-05-03 23:00 | 50.57019 | 3.10501 | 151 ft | 11 kts | 32° |
| 2026-05-03 23:01 | 50.57078 | 3.10550 | 151 ft | 1 kts | 28° |
| 2026-05-03 23:01 | 50.57081 | 3.10552 | 151 ft | 0 kts | 27° |